GLO1793 SBGR-SBVT
Flight info
| Callsign | GLO1793 |
|---|---|
| Flight time | 1h 3m |
| Altitude | 37000 |
| Route | UREMI UZ42 IMDAB DCT SEGLI DCT TODET |
| Aircraft | B738/M-SDE2E3FGHIRWXY/SB1 |
Departure
| Time | 2026-04-30 13:23 |
|---|---|
| Airport | São Paulo/Guarulhos–Governor André Franco Montoro International Airport (SBGR) |
Arrival
| Time | 2026-04-30 14:26 |
|---|---|
| Airport | Eurico de Aguiar Salles International Airport (SBVT) |
| Time | Latitude | Longitude | Altitude | Speed | Heading |
|---|---|---|---|---|---|
| 2026-04-30 13:06 | -23.42967 | -46.48281 | 2467 ft | 0 kts | 353° |
| 2026-04-30 13:17 | -23.43000 | -46.48277 | 2467 ft | 2 kts | 352° |
| 2026-04-30 13:17 | -23.43016 | -46.48274 | 2470 ft | 2 kts | 350° |
| 2026-04-30 13:17 | -23.43048 | -46.48264 | 2469 ft | 2 kts | 308° |
| 2026-04-30 13:18 | -23.43052 | -46.48252 | 2467 ft | 1 kts | 269° |
| 2026-04-30 13:18 | -23.43052 | -46.48250 | 2467 ft | 0 kts | 269° |
| 2026-04-30 13:20 | -23.43053 | -46.48284 | 2467 ft | 6 kts | 265° |
| 2026-04-30 13:20 | -23.43059 | -46.48341 | 2467 ft | 9 kts | 264° |
| 2026-04-30 13:20 | -23.43085 | -46.48415 | 2467 ft | 11 kts | 217° |
| 2026-04-30 13:20 | -23.43161 | -46.48410 | 2471 ft | 11 kts | 165° |
| 2026-04-30 13:21 | -23.43234 | -46.48386 | 2471 ft | 11 kts | 163° |
| 2026-04-30 13:21 | -23.43295 | -46.48367 | 2469 ft | 0 kts | 163° |
| 2026-04-30 13:21 | -23.43297 | -46.48366 | 2469 ft | 3 kts | 163° |
| 2026-04-30 13:22 | -23.43401 | -46.48298 | 2469 ft | 11 kts | 118° |
| 2026-04-30 13:22 | -23.43386 | -46.48180 | 2469 ft | 40 kts | 74° |
| 2026-04-30 13:22 | -23.42912 | -46.46426 | 2506 ft | 190 kts | 72° |
| 2026-04-30 13:23 | -23.42514 | -46.44973 | 3269 ft | 203 kts | 73° |
| 2026-04-30 13:23 | -23.41635 | -46.41902 | 4676 ft | 232 kts | 71° |
| 2026-04-30 13:24 | -23.40588 | -46.38352 | 5509 ft | 257 kts | 71° |
| 2026-04-30 13:24 | -23.40499 | -46.34350 | 6432 ft | 285 kts | 107° |
| 2026-04-30 13:25 | -23.41868 | -46.30257 | 8095 ft | 290 kts | 111° |
| 2026-04-30 13:25 | -23.43287 | -46.26041 | 9622 ft | 301 kts | 110° |
| 2026-04-30 13:26 | -23.44853 | -46.19092 | 10762 ft | 344 kts | 100° |
| 2026-04-30 13:26 | -23.45691 | -46.13848 | 12098 ft | 355 kts | 100° |
| 2026-04-30 13:27 | -23.46582 | -46.08536 | 13093 ft | 361 kts | 101° |
| 2026-04-30 13:28 | -23.47996 | -46.00339 | 14256 ft | 369 kts | 101° |
| 2026-04-30 13:28 | -23.48947 | -45.94802 | 15505 ft | 376 kts | 99° |
| 2026-04-30 13:28 | -23.48975 | -45.91945 | 16030 ft | 382 kts | 78° |
| 2026-04-30 13:29 | -23.47611 | -45.86358 | 17241 ft | 387 kts | 73° |
| 2026-04-30 13:29 | -23.46145 | -45.80624 | 18350 ft | 396 kts | 73° |
| 2026-04-30 13:30 | -23.43945 | -45.71772 | 19664 ft | 411 kts | 73° |
| 2026-04-30 13:31 | -23.42457 | -45.65722 | 20676 ft | 417 kts | 73° |
| 2026-04-30 13:31 | -23.40176 | -45.56466 | 22025 ft | 428 kts | 73° |
| 2026-04-30 13:32 | -23.38618 | -45.50138 | 22906 ft | 436 kts | 74° |
| 2026-04-30 13:32 | -23.37232 | -45.43655 | 23795 ft | 443 kts | 76° |
| 2026-04-30 13:33 | -23.35874 | -45.37098 | 24502 ft | 450 kts | 75° |
| 2026-04-30 13:33 | -23.34451 | -45.30432 | 25249 ft | 455 kts | 75° |
| 2026-04-30 13:34 | -23.33727 | -45.27067 | 25621 ft | 457 kts | 75° |
| 2026-04-30 13:34 | -23.31522 | -45.16848 | 26630 ft | 466 kts | 75° |
| 2026-04-30 13:35 | -23.30780 | -45.13414 | 27029 ft | 467 kts | 75° |
| 2026-04-30 13:35 | -23.29284 | -45.06492 | 27678 ft | 472 kts | 75° |
| 2026-04-30 13:36 | -23.27770 | -44.99498 | 28325 ft | 477 kts | 75° |
| 2026-04-30 13:36 | -23.27005 | -44.95976 | 28654 ft | 477 kts | 75° |
| 2026-04-30 13:36 | -23.25433 | -44.88983 | 29141 ft | 483 kts | 74° |
| 2026-04-30 13:37 | -23.24648 | -44.85357 | 29344 ft | 488 kts | 75° |
| 2026-04-30 13:37 | -23.23126 | -44.78188 | 30012 ft | 490 kts | 75° |
| 2026-04-30 13:38 | -23.21550 | -44.70931 | 30523 ft | 495 kts | 75° |
| 2026-04-30 13:38 | -23.20749 | -44.67283 | 30753 ft | 497 kts | 75° |
| 2026-04-30 13:38 | -23.18889 | -44.60043 | 31218 ft | 498 kts | 65° |
| 2026-04-30 13:39 | -23.16133 | -44.53122 | 31666 ft | 500 kts | 63° |
| 2026-04-30 13:39 | -23.13312 | -44.46314 | 32453 ft | 495 kts | 63° |
| 2026-04-30 13:40 | -23.11914 | -44.42893 | 32719 ft | 496 kts | 64° |
| 2026-04-30 13:40 | -23.10525 | -44.39459 | 32965 ft | 498 kts | 64° |
| 2026-04-30 13:40 | -23.09140 | -44.36009 | 33217 ft | 498 kts | 64° |
| 2026-04-30 13:40 | -23.07763 | -44.32563 | 33544 ft | 497 kts | 64° |
| 2026-04-30 13:41 | -23.06387 | -44.29112 | 33884 ft | 496 kts | 64° |
| 2026-04-30 13:41 | -23.05016 | -44.25677 | 34165 ft | 496 kts | 64° |
| 2026-04-30 13:41 | -23.03642 | -44.22236 | 34411 ft | 496 kts | 64° |
| 2026-04-30 13:41 | -23.02272 | -44.18811 | 34703 ft | 494 kts | 64° |
| 2026-04-30 13:42 | -23.00907 | -44.15403 | 35007 ft | 492 kts | 64° |
| 2026-04-30 13:42 | -22.99539 | -44.11993 | 35243 ft | 492 kts | 64° |
| 2026-04-30 13:42 | -22.96818 | -44.05219 | 35670 ft | 492 kts | 64° |
| 2026-04-30 13:43 | -22.95452 | -44.01819 | 35945 ft | 491 kts | 64° |
| 2026-04-30 13:43 | -22.94085 | -43.98423 | 36203 ft | 490 kts | 64° |
| 2026-04-30 13:43 | -22.92723 | -43.95039 | 36463 ft | 489 kts | 64° |
| 2026-04-30 13:43 | -22.91362 | -43.91661 | 36718 ft | 488 kts | 64° |
| 2026-04-30 13:44 | -22.90007 | -43.88299 | 37008 ft | 485 kts | 64° |
| 2026-04-30 13:44 | -22.88648 | -43.84932 | 37019 ft | 488 kts | 64° |
| 2026-04-30 13:44 | -22.85929 | -43.78189 | 37056 ft | 488 kts | 64° |
| 2026-04-30 13:45 | -22.81844 | -43.68100 | 37054 ft | 485 kts | 64° |
| 2026-04-30 13:46 | -22.79151 | -43.61459 | 37073 ft | 484 kts | 64° |
| 2026-04-30 13:46 | -22.76439 | -43.54780 | 37063 ft | 483 kts | 64° |
| 2026-04-30 13:47 | -22.73733 | -43.48122 | 37064 ft | 482 kts | 64° |
| 2026-04-30 13:47 | -22.71026 | -43.41472 | 37064 ft | 482 kts | 64° |
| 2026-04-30 13:48 | -22.68320 | -43.34835 | 37060 ft | 482 kts | 64° |
| 2026-04-30 13:48 | -22.65627 | -43.28238 | 37063 ft | 482 kts | 64° |
| 2026-04-30 13:49 | -22.62911 | -43.21595 | 37072 ft | 482 kts | 64° |
| 2026-04-30 13:49 | -22.60191 | -43.14949 | 37081 ft | 483 kts | 64° |
| 2026-04-30 13:50 | -22.57465 | -43.08300 | 37109 ft | 483 kts | 64° |
| 2026-04-30 13:50 | -22.53355 | -42.98291 | 37111 ft | 485 kts | 64° |
| 2026-04-30 13:51 | -22.50631 | -42.91670 | 37107 ft | 485 kts | 64° |
| 2026-04-30 13:51 | -22.47884 | -42.84999 | 37111 ft | 485 kts | 64° |
| 2026-04-30 13:52 | -22.45141 | -42.78349 | 37114 ft | 484 kts | 64° |
| 2026-04-30 13:52 | -22.42397 | -42.71708 | 37124 ft | 483 kts | 64° |
| 2026-04-30 13:53 | -22.40118 | -42.66196 | 37116 ft | 483 kts | 64° |
| 2026-04-30 13:53 | -22.37370 | -42.59561 | 37111 ft | 482 kts | 64° |
| 2026-04-30 13:54 | -22.34628 | -42.52947 | 37119 ft | 485 kts | 64° |
| 2026-04-30 13:54 | -22.31842 | -42.46237 | 37129 ft | 492 kts | 64° |
| 2026-04-30 13:55 | -22.28859 | -42.39582 | 37114 ft | 492 kts | 54° |
| 2026-04-30 13:55 | -22.24813 | -42.33701 | 37123 ft | 491 kts | 49° |
| 2026-04-30 13:56 | -22.20603 | -42.27879 | 37117 ft | 491 kts | 49° |
| 2026-04-30 13:56 | -22.16541 | -42.22192 | 37103 ft | 484 kts | 50° |
| 2026-04-30 13:57 | -22.12478 | -42.16442 | 37115 ft | 482 kts | 50° |
| 2026-04-30 13:57 | -22.08416 | -42.10685 | 37102 ft | 482 kts | 50° |
| 2026-04-30 13:58 | -22.02352 | -42.02103 | 37094 ft | 481 kts | 50° |
| 2026-04-30 13:58 | -22.00308 | -41.99214 | 36729 ft | 486 kts | 50° |
| 2026-04-30 13:59 | -21.98254 | -41.96314 | 36230 ft | 485 kts | 50° |
| 2026-04-30 13:59 | -21.96211 | -41.93429 | 35620 ft | 485 kts | 49° |
| 2026-04-30 13:59 | -21.94162 | -41.90538 | 34991 ft | 485 kts | 50° |
| 2026-04-30 13:59 | -21.92106 | -41.87640 | 34424 ft | 486 kts | 50° |
| 2026-04-30 14:00 | -21.90060 | -41.84757 | 33942 ft | 482 kts | 49° |
| 2026-04-30 14:00 | -21.86013 | -41.79054 | 32963 ft | 475 kts | 49° |
| 2026-04-30 14:00 | -21.84012 | -41.76236 | 32528 ft | 471 kts | 49° |
| 2026-04-30 14:01 | -21.82048 | -41.73474 | 32055 ft | 469 kts | 49° |
| 2026-04-30 14:01 | -21.80069 | -41.70692 | 31615 ft | 465 kts | 49° |
| 2026-04-30 14:01 | -21.78110 | -41.67941 | 31192 ft | 461 kts | 49° |
| 2026-04-30 14:01 | -21.76162 | -41.65205 | 30719 ft | 460 kts | 49° |
| 2026-04-30 14:02 | -21.74224 | -41.62485 | 30289 ft | 456 kts | 49° |
| 2026-04-30 14:02 | -21.72298 | -41.59784 | 29790 ft | 453 kts | 49° |
| 2026-04-30 14:02 | -21.70390 | -41.57109 | 29303 ft | 449 kts | 49° |
| 2026-04-30 14:02 | -21.68504 | -41.54464 | 28825 ft | 444 kts | 49° |
| 2026-04-30 14:03 | -21.66629 | -41.51838 | 28376 ft | 440 kts | 49° |
| 2026-04-30 14:03 | -21.64775 | -41.49242 | 27921 ft | 436 kts | 49° |
| 2026-04-30 14:03 | -21.62936 | -41.46668 | 27489 ft | 432 kts | 49° |
| 2026-04-30 14:03 | -21.61111 | -41.44115 | 27057 ft | 428 kts | 49° |
| 2026-04-30 14:04 | -21.59303 | -41.41587 | 26625 ft | 425 kts | 49° |
| 2026-04-30 14:04 | -21.57508 | -41.39080 | 26198 ft | 422 kts | 49° |
| 2026-04-30 14:04 | -21.55725 | -41.36589 | 25771 ft | 419 kts | 49° |
| 2026-04-30 14:04 | -21.53956 | -41.34118 | 25353 ft | 416 kts | 49° |
| 2026-04-30 14:05 | -21.52213 | -41.31686 | 24926 ft | 414 kts | 49° |
| 2026-04-30 14:05 | -21.50459 | -41.29241 | 24498 ft | 412 kts | 49° |
| 2026-04-30 14:05 | -21.48565 | -41.26977 | 24129 ft | 404 kts | 38° |
| 2026-04-30 14:05 | -21.46439 | -41.25065 | 23905 ft | 395 kts | 36° |
| 2026-04-30 14:06 | -21.44305 | -41.23216 | 23532 ft | 391 kts | 36° |
| 2026-04-30 14:06 | -21.40098 | -41.19557 | 22671 ft | 387 kts | 36° |
| 2026-04-30 14:07 | -21.35964 | -41.15911 | 21842 ft | 382 kts | 37° |
| 2026-04-30 14:07 | -21.33922 | -41.14103 | 21435 ft | 380 kts | 37° |
| 2026-04-30 14:07 | -21.31911 | -41.12324 | 21042 ft | 378 kts | 37° |
| 2026-04-30 14:08 | -21.27870 | -41.08762 | 20227 ft | 374 kts | 37° |
| 2026-04-30 14:08 | -21.25852 | -41.06989 | 19813 ft | 373 kts | 37° |
| 2026-04-30 14:08 | -21.21849 | -41.03472 | 18994 ft | 372 kts | 37° |
| 2026-04-30 14:09 | -21.19849 | -41.01715 | 18583 ft | 371 kts | 37° |
| 2026-04-30 14:09 | -21.17847 | -40.99956 | 18150 ft | 371 kts | 37° |
| 2026-04-30 14:09 | -21.13881 | -40.96473 | 17303 ft | 366 kts | 37° |
| 2026-04-30 14:10 | -21.11920 | -40.94751 | 16911 ft | 364 kts | 37° |
| 2026-04-30 14:10 | -21.09966 | -40.93037 | 16515 ft | 361 kts | 38° |
| 2026-04-30 14:10 | -21.08027 | -40.91337 | 16118 ft | 359 kts | 38° |
| 2026-04-30 14:10 | -21.06094 | -40.89642 | 15732 ft | 357 kts | 38° |
| 2026-04-30 14:11 | -21.04199 | -40.87982 | 15361 ft | 355 kts | 38° |
| 2026-04-30 14:11 | -21.02287 | -40.86307 | 14976 ft | 354 kts | 38° |
| 2026-04-30 14:11 | -21.00382 | -40.84639 | 14568 ft | 353 kts | 38° |
| 2026-04-30 14:11 | -20.98487 | -40.82980 | 14181 ft | 352 kts | 38° |
| 2026-04-30 14:12 | -20.96593 | -40.81323 | 13795 ft | 351 kts | 38° |
| 2026-04-30 14:12 | -20.94705 | -40.79670 | 13365 ft | 348 kts | 39° |
| 2026-04-30 14:12 | -20.92836 | -40.78034 | 12968 ft | 346 kts | 38° |
| 2026-04-30 14:12 | -20.91607 | -40.76959 | 12714 ft | 344 kts | 39° |
| 2026-04-30 14:13 | -20.89168 | -40.74826 | 12198 ft | 331 kts | 39° |
| 2026-04-30 14:13 | -20.87428 | -40.73304 | 11873 ft | 323 kts | 39° |
| 2026-04-30 14:13 | -20.85699 | -40.71793 | 11593 ft | 319 kts | 39° |
| 2026-04-30 14:13 | -20.83984 | -40.70295 | 11253 ft | 317 kts | 39° |
| 2026-04-30 14:14 | -20.82280 | -40.68808 | 10914 ft | 316 kts | 39° |
| 2026-04-30 14:14 | -20.80608 | -40.67290 | 10565 ft | 315 kts | 46° |
| 2026-04-30 14:14 | -20.79268 | -40.65491 | 10510 ft | 303 kts | 54° |
| 2026-04-30 14:14 | -20.78067 | -40.63671 | 10360 ft | 295 kts | 54° |
| 2026-04-30 14:15 | -20.76907 | -40.61898 | 10248 ft | 287 kts | 55° |
| 2026-04-30 14:15 | -20.75771 | -40.60172 | 10134 ft | 279 kts | 54° |
| 2026-04-30 14:15 | -20.74654 | -40.58490 | 9877 ft | 278 kts | 54° |
| 2026-04-30 14:15 | -20.73533 | -40.56809 | 9588 ft | 276 kts | 54° |
| 2026-04-30 14:16 | -20.72432 | -40.55165 | 9308 ft | 275 kts | 54° |
| 2026-04-30 14:16 | -20.71310 | -40.53495 | 8953 ft | 277 kts | 54° |
| 2026-04-30 14:16 | -20.70186 | -40.51826 | 8662 ft | 277 kts | 54° |
| 2026-04-30 14:16 | -20.69061 | -40.50157 | 8370 ft | 276 kts | 54° |
| 2026-04-30 14:17 | -20.67938 | -40.48494 | 8077 ft | 275 kts | 54° |
| 2026-04-30 14:17 | -20.66822 | -40.46842 | 7780 ft | 274 kts | 54° |
| 2026-04-30 14:17 | -20.65710 | -40.45197 | 7493 ft | 273 kts | 54° |
| 2026-04-30 14:17 | -20.64600 | -40.43557 | 7205 ft | 272 kts | 54° |
| 2026-04-30 14:18 | -20.63491 | -40.41918 | 6916 ft | 271 kts | 54° |
| 2026-04-30 14:18 | -20.62388 | -40.40288 | 6635 ft | 270 kts | 54° |
| 2026-04-30 14:18 | -20.60205 | -40.37065 | 6040 ft | 264 kts | 54° |
| 2026-04-30 14:19 | -20.58081 | -40.33931 | 5487 ft | 261 kts | 54° |
| 2026-04-30 14:19 | -20.57018 | -40.32362 | 5210 ft | 260 kts | 54° |
| 2026-04-30 14:19 | -20.55957 | -40.30797 | 4940 ft | 260 kts | 54° |
| 2026-04-30 14:20 | -20.54903 | -40.29242 | 4672 ft | 259 kts | 54° |
| 2026-04-30 14:20 | -20.53861 | -40.27708 | 4538 ft | 248 kts | 54° |
| 2026-04-30 14:20 | -20.51865 | -40.24972 | 4318 ft | 221 kts | 36° |
| 2026-04-30 14:21 | -20.50487 | -40.24433 | 4218 ft | 206 kts | 6° |
| 2026-04-30 14:21 | -20.49112 | -40.24466 | 4106 ft | 190 kts | 351° |
| 2026-04-30 14:21 | -20.46525 | -40.24892 | 3409 ft | 188 kts | 352° |
| 2026-04-30 14:22 | -20.45259 | -40.25089 | 3161 ft | 179 kts | 352° |
| 2026-04-30 14:22 | -20.42906 | -40.25435 | 2831 ft | 169 kts | 352° |
| 2026-04-30 14:22 | -20.41704 | -40.25614 | 2715 ft | 178 kts | 352° |
| 2026-04-30 14:23 | -20.39209 | -40.25983 | 2596 ft | 183 kts | 352° |
| 2026-04-30 14:23 | -20.36754 | -40.26346 | 2199 ft | 177 kts | 353° |
| 2026-04-30 14:24 | -20.34455 | -40.26686 | 1710 ft | 158 kts | 353° |
| 2026-04-30 14:24 | -20.33390 | -40.26843 | 1503 ft | 153 kts | 353° |
| 2026-04-30 14:25 | -20.31242 | -40.27160 | 1065 ft | 156 kts | 353° |
| 2026-04-30 14:25 | -20.29092 | -40.27478 | 632 ft | 159 kts | 353° |
| 2026-04-30 14:26 | -20.26864 | -40.27818 | 105 ft | 165 kts | 353° |
| 2026-04-30 14:26 | -20.25817 | -40.27964 | 21 ft | 111 kts | 351° |
| 2026-04-30 14:26 | -20.25240 | -40.28064 | 19 ft | 0 kts | 303° |
| 2026-04-30 14:27 | -20.25237 | -40.28070 | 19 ft | 1 kts | 297° |
| 2026-04-30 14:27 | -20.25240 | -40.28100 | 18 ft | 10 kts | 244° |
| 2026-04-30 14:27 | -20.25329 | -40.28169 | 17 ft | 20 kts | 212° |
| 2026-04-30 14:28 | -20.25559 | -40.28321 | 17 ft | 19 kts | 211° |
| 2026-04-30 14:28 | -20.25670 | -40.28394 | 17 ft | 18 kts | 211° |
| 2026-04-30 14:28 | -20.25777 | -40.28463 | 17 ft | 18 kts | 212° |
| 2026-04-30 14:28 | -20.25835 | -40.28546 | 17 ft | 14 kts | 282° |
| 2026-04-30 14:29 | -20.25729 | -40.28727 | 16 ft | 14 kts | 303° |
| 2026-04-30 14:29 | -20.25674 | -40.28839 | 17 ft | 0 kts | 300° |